Time;durP1;ratioP1;P1;durP2;ratioP2;P2;SDS_P1;SDS_P2;PMS_P1;PMS_P2;Temp;Humidity;BMP_temperature;BMP_pressure;BME280_temperature;BME280_humidity;BME280_pressure;Samples;Min_cycle;Max_cycle;Signal;HPM_P1;HPM_P2
2022/09/23 00:00:20;;;;;;;0.98;0.95;;;13.20;68.10;;;;;;5069745;28;20391;-69
2022/09/23 00:02:47;;;;;;;1.85;1.20;;;13.20;68.20;;;;;;5052591;28;20046;-69
2022/09/23 00:05:14;;;;;;;4.65;1.70;;;13.10;68.30;;;;;;5067903;28;20028;-67
2022/09/23 00:07:40;;;;;;;1.10;0.98;;;13.10;68.30;;;;;;5056362;28;20557;-68
2022/09/23 00:10:06;;;;;;;2.13;1.38;;;13.10;68.40;;;;;;5022836;28;20112;-68
2022/09/23 00:12:32;;;;;;;3.78;1.83;;;13.10;68.40;;;;;;5029895;28;20504;-68
2022/09/23 00:14:58;;;;;;;1.65;1.55;;;13.10;68.50;;;;;;5061437;28;20024;-69
2022/09/23 00:17:24;;;;;;;1.40;1.30;;;13.10;68.60;;;;;;5047923;28;20128;-68
2022/09/23 00:19:49;;;;;;;2.03;1.25;;;13.00;68.60;;;;;;5032293;28;20052;-68
2022/09/23 00:22:15;;;;;;;1.52;0.90;;;13.00;68.50;;;;;;5039147;28;20108;-67
2022/09/23 00:24:41;;;;;;;1.33;1.23;;;13.00;68.60;;;;;;5069434;28;20065;-67
2022/09/23 00:27:07;;;;;;;2.08;1.08;;;12.90;68.70;;;;;;5069882;28;20063;-68
2022/09/23 00:29:33;;;;;;;2.55;1.48;;;12.90;68.70;;;;;;5069253;28;20016;-67
2022/09/23 00:31:58;;;;;;;1.85;1.38;;;12.90;68.80;;;;;;5060458;28;20429;-68
2022/09/23 00:34:24;;;;;;;2.35;1.40;;;12.90;68.80;;;;;;5050415;28;20034;-68
2022/09/23 00:36:50;;;;;;;2.13;1.50;;;12.90;68.70;;;;;;5069571;28;20533;-69
2022/09/23 00:39:15;;;;;;;1.63;1.10;;;12.80;68.80;;;;;;5069540;28;20108;-68
2022/09/23 00:41:41;;;;;;;1.95;1.58;;;12.80;69.00;;;;;;5051552;28;20040;-69
2022/09/23 00:44:39;;;;;;;1.40;0.93;;;12.80;69.00;;;;;;5068418;28;20079;-70
2022/09/23 00:47:15;;;;;;;2.88;1.83;;;12.80;69.10;;;;;;5069217;28;20108;-69
2022/09/23 00:49:43;;;;;;;1.77;1.45;;;12.80;69.30;;;;;;5055446;28;20090;-70
2022/09/23 00:52:14;;;;;;;1.65;1.27;;;12.70;69.30;;;;;;5067482;28;20017;-68
2022/09/23 00:54:41;;;;;;;1.80;1.50;;;12.70;69.30;;;;;;5066475;28;20051;-68
2022/09/23 00:57:10;;;;;;;1.83;1.60;;;12.70;69.60;;;;;;5069419;28;20031;-70
2022/09/23 00:59:36;;;;;;;2.58;1.40;;;12.70;69.70;;;;;;5068578;28;20033;-70
2022/09/23 01:02:03;;;;;;;2.92;2.10;;;12.60;69.80;;;;;;5046464;28;20028;-69
2022/09/23 01:04:30;;;;;;;1.70;1.10;;;12.60;69.90;;;;;;5050435;28;20098;-69
2022/09/23 01:06:56;;;;;;;2.15;1.40;;;12.60;69.90;;;;;;5068900;28;20027;-66
2022/09/23 01:09:22;;;;;;;3.15;1.80;;;12.70;70.00;;;;;;5066509;28;20033;-69
2022/09/23 01:12:21;;;;;;;3.13;1.23;;;12.60;69.80;;;;;;5048364;28;20024;-67
2022/09/23 01:14:49;;;;;;;1.98;1.40;;;12.60;69.90;;;;;;5034339;28;20048;-67
2022/09/23 01:17:22;;;;;;;2.40;1.30;;;12.60;70.10;;;;;;5065066;28;20033;-69
2022/09/23 01:19:55;;;;;;;1.83;1.30;;;12.60;70.00;;;;;;5057555;28;20391;-67
2022/09/23 01:22:53;;;;;;;1.20;1.10;;;12.60;69.90;;;;;;5068642;28;20363;-69
2022/09/23 01:25:25;;;;;;;1.50;1.40;;;12.60;69.80;;;;;;5068690;28;20021;-69
2022/09/23 01:27:51;;;;;;;1.70;1.40;;;12.60;70.00;;;;;;5061504;28;20027;-66
2022/09/23 01:30:44;;;;;;;2.63;1.17;;;12.50;69.90;;;;;;5045873;28;20064;-66
2022/09/23 01:33:19;;;;;;;1.65;1.15;;;12.50;69.80;;;;;;5068808;28;20359;-67
2022/09/23 01:36:00;;;;;;;1.88;0.77;;;12.50;70.00;;;;;;5068428;28;20467;-69
2022/09/23 01:38:36;;;;;;;1.17;1.02;;;12.50;70.00;;;;;;5067350;28;20078;-69
2022/09/23 01:41:11;;;;;;;1.10;1.05;;;12.50;70.00;;;;;;5067598;28;20082;-69
2022/09/23 01:43:58;;;;;;;1.52;1.25;;;12.40;70.20;;;;;;5067750;28;20437;-68
2022/09/23 01:46:49;;;;;;;2.35;0.90;;;12.40;70.20;;;;;;5050186;28;20556;-69
2022/09/23 01:49:36;;;;;;;1.33;1.23;;;12.40;70.20;;;;;;5013069;28;20051;-68
2022/09/23 01:52:42;;;;;;;1.95;1.10;;;12.40;70.20;;;;;;5056742;28;20020;-70
2022/09/23 01:55:23;;;;;;;1.50;1.25;;;12.30;70.20;;;;;;5050074;28;20021;-69
2022/09/23 01:57:55;;;;;;;1.77;1.40;;;12.30;70.40;;;;;;5051056;28;20032;-69
2022/09/23 02:00:22;;;;;;;1.90;1.17;;;12.20;70.40;;;;;;5054760;28;20020;-70
2022/09/23 02:02:57;;;;;;;1.77;0.80;;;12.20;71.00;;;;;;5066773;28;20274;-70
2022/09/23 02:05:31;;;;;;;1.75;1.05;;;12.20;70.40;;;;;;5060386;28;20368;-67
2022/09/23 02:08:27;;;;;;;1.42;0.90;;;12.20;70.40;;;;;;5047098;28;20025;-67
2022/09/23 02:11:03;;;;;;;1.10;0.90;;;12.10;70.30;;;;;;5041424;28;20029;-67
2022/09/23 02:13:35;;;;;;;6.28;1.70;;;12.00;70.40;;;;;;5067888;28;20412;-66
2022/09/23 02:16:11;;;;;;;1.30;1.20;;;12.10;70.50;;;;;;5063257;28;20033;-67
2022/09/23 02:19:00;;;;;;;1.60;1.48;;;12.00;70.50;;;;;;5049471;28;20052;-70
2022/09/23 02:21:32;;;;;;;1.95;1.05;;;12.00;70.40;;;;;;5066524;28;20028;-70
2022/09/23 02:24:20;;;;;;;1.38;1.27;;;12.00;70.50;;;;;;5050257;28;20031;-68
2022/09/23 02:26:51;;;;;;;1.73;1.60;;;12.00;70.50;;;;;;5068434;28;20021;-69
2022/09/23 02:29:36;;;;;;;2.92;1.88;;;11.90;70.50;;;;;;5060989;28;20506;-67
2022/09/23 02:32:26;;;;;;;1.73;1.15;;;11.90;70.50;;;;;;5046452;28;20025;-67
2022/09/23 02:35:05;;;;;;;2.15;1.30;;;11.90;70.50;;;;;;5050875;28;20229;-68
2022/09/23 02:37:55;;;;;;;1.50;1.30;;;11.90;70.60;;;;;;5066566;28;20039;-68
2022/09/23 02:40:25;;;;;;;1.58;1.27;;;11.90;70.50;;;;;;5064653;28;20099;-68
2022/09/23 02:43:21;;;;;;;2.63;1.27;;;11.90;70.70;;;;;;5065167;28;20032;-68
2022/09/23 02:45:55;;;;;;;2.80;1.30;;;11.90;70.70;;;;;;5064979;28;20781;-68
2022/09/23 02:48:49;;;;;;;1.15;1.05;;;11.90;70.90;;;;;;5058465;28;20033;-70
2022/09/23 02:51:15;;;;;;;2.20;1.58;;;11.90;70.90;;;;;;5022903;28;20033;-68
2022/09/23 02:53:41;;;;;;;2.08;1.40;;;11.90;71.00;;;;;;5065844;28;20044;-68
2022/09/23 02:56:20;;;;;;;3.00;2.00;;;11.90;71.10;;;;;;5071823;28;20020;-70
2022/09/23 02:58:48;;;;;;;4.55;1.50;;;11.90;71.10;;;;;;5059993;28;20502;-68
2022/09/23 03:01:36;;;;;;;1.50;1.23;;;11.90;71.20;;;;;;5054349;28;20029;-68
2022/09/23 03:04:05;;;;;;;2.47;1.38;;;11.90;71.10;;;;;;5061169;28;20029;-70
2022/09/23 03:06:58;;;;;;;1.85;1.38;;;11.90;71.30;;;;;;5072074;28;20110;-68
2022/09/23 03:09:32;;;;;;;13.63;1.67;;;11.90;71.20;;;;;;5063084;28;20032;-68
2022/09/23 03:12:30;;;;;;;1.63;1.08;;;11.90;71.50;;;;;;5071363;28;20099;-67
2022/09/23 03:15:29;;;;;;;4.57;1.77;;;11.90;71.50;;;;;;5065891;28;20119;-68
2022/09/23 03:18:10;;;;;;;1.98;1.73;;;11.90;71.50;;;;;;5072395;28;20044;-69
2022/09/23 03:20:45;;;;;;;2.17;1.30;;;11.90;71.70;;;;;;5069859;28;20063;-67
2022/09/23 03:23:14;;;;;;;1.88;1.33;;;11.80;71.70;;;;;;5063388;28;20523;-68
2022/09/23 03:25:44;;;;;;;2.13;1.52;;;11.80;71.60;;;;;;5071182;28;20610;-68
2022/09/23 03:28:11;;;;;;;5.18;1.65;;;11.80;71.60;;;;;;5053766;28;20016;-70
2022/09/23 03:30:38;;;;;;;2.92;1.40;;;11.80;71.70;;;;;;5053290;28;20108;-68
2022/09/23 03:33:07;;;;;;;1.90;1.58;;;11.70;71.60;;;;;;5069728;28;20024;-70
2022/09/23 03:36:48;;;;;;;1.58;1.30;;;11.70;71.60;;;;;;5054518;28;20421;-69
2022/09/23 03:38:25;;;;;;;2.45;1.80;;;11.70;71.70;;;;;;5064929;28;20029;-67
2022/09/23 03:40:53;;;;;;;2.28;1.63;;;11.70;71.80;;;;;;5068371;28;20396;-66
2022/09/23 03:43:19;;;;;;;2.53;1.67;;;11.60;71.70;;;;;;5070133;28;20044;-67
2022/09/23 03:45:45;;;;;;;3.55;1.95;;;11.60;71.80;;;;;;5066435;28;20036;-67
2022/09/23 03:48:13;;;;;;;2.92;1.90;;;11.60;71.80;;;;;;5069888;28;20476;-69
2022/09/23 03:50:39;;;;;;;2.13;1.58;;;11.60;72.00;;;;;;5070607;28;20025;-67
2022/09/23 03:53:05;;;;;;;1.80;1.35;;;11.60;72.00;;;;;;5070866;28;20081;-70
2022/09/23 03:55:31;;;;;;;1.60;1.33;;;11.60;72.00;;;;;;5060632;28;20067;-70
2022/09/23 03:57:59;;;;;;;1.48;1.38;;;11.60;71.90;;;;;;5070551;28;20037;-69
2022/09/23 04:00:24;;;;;;;3.30;1.83;;;11.50;71.90;;;;;;5068101;28;20418;-70
2022/09/23 04:02:51;;;;;;;2.42;1.38;;;11.50;72.00;;;;;;5068878;28;20028;-70
2022/09/23 04:05:16;;;;;;;2.22;2.03;;;11.50;72.00;;;;;;5064086;28;20031;-70
2022/09/23 04:07:42;;;;;;;1.73;1.13;;;11.50;72.00;;;;;;5050727;28;20036;-71
2022/09/23 04:10:09;;;;;;;2.17;1.67;;;11.50;72.10;;;;;;5070154;28;20046;-70
2022/09/23 04:12:35;;;;;;;1.52;1.10;;;11.50;72.30;;;;;;5052810;28;20818;-71
2022/09/23 04:15:01;;;;;;;3.63;1.73;;;11.50;72.40;;;;;;5066213;28;20031;-70
2022/09/23 04:17:27;;;;;;;2.03;1.83;;;11.40;72.40;;;;;;5054094;28;20037;-70
2022/09/23 04:19:52;;;;;;;2.38;1.52;;;11.40;72.30;;;;;;5062182;28;20032;-70
2022/09/23 04:22:18;;;;;;;2.70;1.80;;;11.50;72.30;;;;;;5061884;28;20124;-71
2022/09/23 04:24:44;;;;;;;1.80;1.70;;;11.40;72.40;;;;;;5067096;28;20516;-70
2022/09/23 04:27:09;;;;;;;2.90;1.90;;;11.40;72.50;;;;;;5069182;28;20033;-70
2022/09/23 04:29:35;;;;;;;3.78;1.85;;;11.40;72.50;;;;;;5066255;28;20478;-70
2022/09/23 04:32:01;;;;;;;3.00;2.05;;;11.40;72.50;;;;;;5069483;28;20056;-71
2022/09/23 04:34:27;;;;;;;4.60;1.92;;;11.40;72.50;;;;;;5068173;28;20035;-70
2022/09/23 04:36:52;;;;;;;1.63;1.20;;;11.50;72.60;;;;;;5052355;28;20052;-70
2022/09/23 04:39:18;;;;;;;4.28;1.80;;;11.40;72.60;;;;;;5068749;28;20142;-69
2022/09/23 04:41:44;;;;;;;2.38;1.85;;;11.50;72.80;;;;;;5051846;28;20511;-69
2022/09/23 04:44:14;;;;;;;4.47;2.00;;;11.40;73.00;;;;;;5067505;28;20036;-70
2022/09/23 04:46:40;;;;;;;2.47;1.52;;;11.40;73.20;;;;;;5044830;28;20031;-70
2022/09/23 04:49:07;;;;;;;1.55;1.30;;;11.40;73.30;;;;;;5069164;28;20384;-68
2022/09/23 04:51:32;;;;;;;3.03;1.85;;;11.40;73.20;;;;;;5042861;28;20032;-69
2022/09/23 04:53:58;;;;;;;4.72;2.40;;;11.40;73.20;;;;;;5049412;28;20054;-70
2022/09/23 04:56:28;;;;;;;1.45;1.27;;;11.40;73.30;;;;;;5044714;28;20400;-69
2022/09/23 04:58:56;;;;;;;2.47;2.10;;;11.40;73.40;;;;;;5038478;28;20431;-69
2022/09/23 05:01:25;;;;;;;2.83;1.95;;;11.40;73.60;;;;;;5059766;28;20032;-70
2022/09/23 05:03:57;;;;;;;3.17;1.88;;;11.40;73.70;;;;;;5066119;28;20032;-70
2022/09/23 05:06:23;;;;;;;2.90;1.77;;;11.40;74.30;;;;;;5060526;28;20436;-68
2022/09/23 05:08:51;;;;;;;4.93;1.50;;;11.50;73.70;;;;;;5047022;28;20039;-70
2022/09/23 05:11:17;;;;;;;2.30;1.40;;;11.50;73.50;;;;;;5062943;28;20408;-68
2022/09/23 05:13:46;;;;;;;3.60;2.10;;;11.50;73.50;;;;;;5067040;28;20029;-68
2022/09/23 05:16:11;;;;;;;1.98;1.73;;;11.50;73.50;;;;;;5066905;28;20408;-68
2022/09/23 05:18:42;;;;;;;2.20;2.00;;;11.60;73.50;;;;;;5051176;28;20032;-66
2022/09/23 05:21:12;;;;;;;2.53;1.83;;;11.60;73.50;;;;;;5064403;28;20435;-65
2022/09/23 05:23:42;;;;;;;6.57;1.75;;;11.60;73.60;;;;;;5048874;28;20487;-68
2022/09/23 05:26:10;;;;;;;2.55;2.00;;;11.60;73.60;;;;;;5060083;28;20093;-68
2022/09/23 05:28:38;;;;;;;3.03;2.10;;;11.60;73.70;;;;;;5061591;28;20021;-69
2022/09/23 05:31:04;;;;;;;3.22;2.13;;;11.60;73.90;;;;;;5043592;28;20016;-68
2022/09/23 05:33:30;;;;;;;2.25;1.65;;;11.60;73.90;;;;;;5049736;28;20047;-70
2022/09/23 05:35:56;;;;;;;2.90;1.83;;;11.60;74.10;;;;;;5032421;28;20035;-68
2022/09/23 05:38:22;;;;;;;2.53;2.08;;;11.60;74.20;;;;;;5051489;28;20547;-70
2022/09/23 05:40:55;;;;;;;1.95;1.77;;;11.60;74.20;;;;;;5068768;28;20032;-69
2022/09/23 05:43:21;;;;;;;3.35;2.70;;;11.70;74.30;;;;;;5068979;28;20055;-69
2022/09/23 05:45:46;;;;;;;4.10;2.05;;;11.70;74.40;;;;;;5066810;28;20044;-70
2022/09/23 05:48:13;;;;;;;2.50;1.80;;;11.70;74.50;;;;;;5069182;28;20468;-70
2022/09/23 05:50:39;;;;;;;3.00;2.10;;;11.70;74.60;;;;;;5050260;28;20071;-70
2022/09/23 05:53:04;;;;;;;3.22;1.90;;;11.70;74.80;;;;;;5033797;28;20032;-70
2022/09/23 05:55:30;;;;;;;4.97;2.33;;;11.70;74.80;;;;;;5067908;28;20037;-69
2022/09/23 05:57:55;;;;;;;2.53;1.77;;;11.70;74.80;;;;;;5068468;28;20119;-69
2022/09/23 06:00:21;;;;;;;3.13;2.45;;;11.70;74.90;;;;;;5049632;28;20055;-69
2022/09/23 06:02:48;;;;;;;3.92;2.28;;;11.80;75.60;;;;;;5025880;28;20128;-69
2022/09/23 06:05:15;;;;;;;2.30;1.83;;;11.80;74.90;;;;;;5066914;28;20502;-69
2022/09/23 06:07:40;;;;;;;2.67;1.65;;;11.80;74.90;;;;;;5069267;28;20650;-69
2022/09/23 06:10:06;;;;;;;2.67;1.60;;;11.90;74.90;;;;;;5051034;28;20024;-69
2022/09/23 06:12:33;;;;;;;1.88;1.67;;;11.90;74.90;;;;;;5065927;28;20036;-69
2022/09/23 06:14:59;;;;;;;5.03;1.63;;;12.00;74.80;;;;;;5067144;28;20020;-69
2022/09/23 06:17:25;;;;;;;1.70;1.50;;;12.00;74.80;;;;;;5066873;28;20032;-69
2022/09/23 06:19:51;;;;;;;2.90;1.83;;;12.10;74.80;;;;;;5068405;28;20032;-69
2022/09/23 06:22:17;;;;;;;2.78;1.98;;;12.10;74.80;;;;;;5014754;28;20450;-69
2022/09/23 06:24:43;;;;;;;4.53;2.50;;;12.20;74.80;;;;;;5053185;28;20466;-66
2022/09/23 06:27:09;;;;;;;2.70;2.50;;;12.20;74.90;;;;;;5040994;28;20044;-69
2022/09/23 06:29:35;;;;;;;2.33;2.03;;;12.20;74.90;;;;;;5069923;28;20036;-67
2022/09/23 06:32:01;;;;;;;1.92;1.73;;;12.30;75.00;;;;;;5036139;28;20480;-68
2022/09/23 06:34:27;;;;;;;4.38;1.85;;;12.30;75.00;;;;;;5065262;28;20033;-66
2022/09/23 06:36:54;;;;;;;2.33;2.08;;;12.40;75.00;;;;;;5061313;28;20067;-66
2022/09/23 06:39:20;;;;;;;3.30;2.00;;;12.40;75.00;;;;;;5054929;28;20024;-66
2022/09/23 06:41:46;;;;;;;2.53;2.00;;;12.50;75.10;;;;;;5044232;28;20037;-67
2022/09/23 06:44:13;;;;;;;2.35;1.80;;;12.50;75.00;;;;;;5069010;28;20041;-69
2022/09/23 06:46:38;;;;;;;4.82;2.20;;;12.60;75.00;;;;;;5044645;28;20411;-69
2022/09/23 06:49:04;;;;;;;4.05;2.50;;;12.60;75.00;;;;;;5069692;28;20037;-66
2022/09/23 06:51:30;;;;;;;2.25;2.03;;;12.70;75.00;;;;;;5069228;28;20036;-65
2022/09/23 06:53:55;;;;;;;2.10;1.88;;;12.70;74.90;;;;;;5072157;28;20415;-65
2022/09/23 06:56:22;;;;;;;3.20;2.35;;;12.70;74.90;;;;;;5072320;28;20028;-67
2022/09/23 06:58:50;;;;;;;4.90;2.20;;;12.80;74.90;;;;;;5052508;28;20448;-67
2022/09/23 07:01:16;;;;;;;3.03;2.38;;;12.80;74.90;;;;;;5060367;28;20491;-66
2022/09/23 07:03:43;;;;;;;2.60;1.88;;;12.90;75.00;;;;;;5070263;28;20029;-67
2022/09/23 07:06:09;;;;;;;2.60;2.17;;;12.90;74.90;;;;;;5072268;28;20078;-67
2022/09/23 07:08:36;;;;;;;2.95;2.22;;;12.90;74.90;;;;;;5052341;28;20036;-67
2022/09/23 07:11:04;;;;;;;3.65;2.33;;;13.00;74.80;;;;;;5072870;28;20028;-67
2022/09/23 07:13:32;;;;;;;4.47;2.13;;;13.10;74.60;;;;;;5070168;28;20016;-67
2022/09/23 07:15:59;;;;;;;3.95;2.97;;;13.10;74.40;;;;;;5053038;28;20032;-67
2022/09/23 07:18:26;;;;;;;3.58;2.17;;;13.10;74.40;;;;;;5062247;28;20052;-67
2022/09/23 07:20:53;;;;;;;3.40;2.47;;;13.10;74.40;;;;;;5059498;28;20032;-67
2022/09/23 07:23:19;;;;;;;4.30;2.13;;;13.20;74.40;;;;;;5072161;28;20016;-67
2022/09/23 07:25:45;;;;;;;4.05;2.50;;;13.20;74.40;;;;;;5071808;28;20052;-67
2022/09/23 07:28:12;;;;;;;3.85;3.22;;;13.20;74.30;;;;;;5049906;28;20048;-67
2022/09/23 07:30:42;;;;;;;3.67;2.38;;;13.30;74.40;;;;;;5051718;28;20032;-67
2022/09/23 07:33:08;;;;;;;3.53;2.08;;;13.30;74.30;;;;;;5071923;28;20020;-67
2022/09/23 07:35:38;;;;;;;2.97;1.92;;;13.30;74.30;;;;;;5052472;28;20062;-71
2022/09/23 07:38:04;;;;;;;3.83;2.22;;;13.30;74.00;;;;;;5069468;28;20063;-70
2022/09/23 07:40:29;;;;;;;3.03;1.92;;;13.40;74.10;;;;;;5062552;28;20420;-70
2022/09/23 07:42:55;;;;;;;2.20;1.95;;;13.40;74.00;;;;;;5060922;28;20368;-70
2022/09/23 07:45:22;;;;;;;7.22;2.67;;;13.40;74.00;;;;;;5032169;28;20025;-70
2022/09/23 07:47:48;;;;;;;2.13;1.58;;;13.50;73.90;;;;;;5065807;28;20170;-70
2022/09/23 07:50:14;;;;;;;3.88;2.17;;;13.50;73.90;;;;;;5068887;28;20029;-70
2022/09/23 07:52:40;;;;;;;2.28;1.88;;;13.50;73.70;;;;;;5049787;28;20405;-70
2022/09/23 07:55:06;;;;;;;2.70;1.80;;;13.60;73.70;;;;;;5069020;28;20025;-70
2022/09/23 07:57:32;;;;;;;1.77;1.67;;;13.70;73.60;;;;;;5049724;28;20091;-70
2022/09/23 07:59:59;;;;;;;1.83;1.70;;;13.70;73.40;;;;;;5067975;28;20433;-71
2022/09/23 08:02:25;;;;;;;2.83;2.13;;;13.80;73.30;;;;;;5068850;28;20115;-71
2022/09/23 08:04:52;;;;;;;2.60;2.15;;;13.90;73.20;;;;;;5050926;28;20111;-70
2022/09/23 08:07:18;;;;;;;4.55;2.50;;;13.90;73.00;;;;;;5069824;28;20032;-70
2022/09/23 08:09:44;;;;;;;4.35;2.53;;;14.00;73.00;;;;;;5066918;28;20475;-70
2022/09/23 08:12:14;;;;;;;5.72;2.25;;;14.10;72.90;;;;;;5051058;28;20029;-70
2022/09/23 08:14:40;;;;;;;3.15;1.98;;;14.20;72.90;;;;;;5066367;28;20020;-70
2022/09/23 08:17:06;;;;;;;2.05;1.92;;;14.20;72.90;;;;;;5051311;28;20025;-70
2022/09/23 08:19:32;;;;;;;1.90;1.67;;;14.30;72.60;;;;;;5069786;28;20025;-70
2022/09/23 08:21:58;;;;;;;7.68;2.78;;;14.40;72.30;;;;;;5068703;28;20036;-70
2022/09/23 08:24:25;;;;;;;2.85;2.35;;;14.40;72.10;;;;;;5048473;28;20502;-70
2022/09/23 08:26:52;;;;;;;2.38;1.83;;;14.50;72.10;;;;;;5069020;28;20371;-70
2022/09/23 08:29:20;;;;;;;3.17;2.15;;;14.60;71.90;;;;;;5069455;28;20073;-70
2022/09/23 08:31:48;;;;;;;1.40;1.30;;;14.70;71.60;;;;;;5070018;28;20038;-68
2022/09/23 08:34:14;;;;;;;2.25;1.92;;;14.80;71.40;;;;;;5049233;28;20093;-68
2022/09/23 08:36:40;;;;;;;2.92;2.03;;;14.90;71.10;;;;;;5070075;28;20546;-68
2022/09/23 08:39:06;;;;;;;1.92;1.70;;;15.00;70.90;;;;;;5051373;28;20032;-68
2022/09/23 08:42:16;;;;;;;2.08;1.90;;;15.00;70.70;;;;;;5062768;28;20048;-70
2022/09/23 08:44:52;;;;;;;7.50;2.92;;;15.10;70.50;;;;;;5065429;28;20048;-70
2022/09/23 08:47:29;;;;;;;1.80;1.63;;;15.10;70.40;;;;;;5063980;28;20017;-71
2022/09/23 08:49:55;;;;;;;2.85;2.15;;;15.20;70.30;;;;;;5068070;28;20519;-71
2022/09/23 08:52:34;;;;;;;2.25;2.05;;;15.30;70.20;;;;;;5062979;28;20112;-70
2022/09/23 08:55:02;;;;;;;2.42;1.92;;;15.40;70.10;;;;;;5047553;28;20112;-69
2022/09/23 08:57:31;;;;;;;2.25;2.05;;;15.40;70.00;;;;;;5065237;28;20040;-69
2022/09/23 08:59:58;;;;;;;2.58;1.92;;;15.40;69.90;;;;;;5066413;28;20032;-69
2022/09/23 09:02:23;;;;;;;3.15;2.13;;;15.50;69.80;;;;;;5068714;28;20052;-69
2022/09/23 09:05:02;;;;;;;2.78;2.03;;;15.60;69.30;;;;;;5068272;28;20064;-69
2022/09/23 09:07:32;;;;;;;3.63;2.35;;;15.60;69.20;;;;;;5067425;28;20036;-69
2022/09/23 09:10:24;;;;;;;2.17;1.77;;;15.70;69.10;;;;;;5067606;28;20086;-67
2022/09/23 09:12:59;;;;;;;1.80;1.70;;;15.80;68.80;;;;;;5059459;28;20352;-66
2022/09/23 09:15:26;;;;;;;3.72;2.03;;;15.80;68.60;;;;;;5065152;28;20391;-67
2022/09/23 09:18:15;;;;;;;14.48;2.80;;;15.90;68.50;;;;;;5068266;28;20119;-67
2022/09/23 09:21:11;;;;;;;2.35;1.50;;;16.00;68.50;;;;;;5066988;28;20796;-67
2022/09/23 09:23:52;;;;;;;2.95;2.28;;;16.10;68.40;;;;;;5066663;28;20024;-67
2022/09/23 09:26:34;;;;;;;2.65;2.08;;;16.10;67.90;;;;;;5066923;28;20547;-66
2022/09/23 09:29:09;;;;;;;1.80;1.70;;;16.20;67.80;;;;;;5061469;28;20107;-67
2022/09/23 09:31:44;;;;;;;3.60;2.63;;;16.20;67.80;;;;;;5068266;28;20410;-67
2022/09/23 09:34:43;;;;;;;2.70;1.98;;;16.30;67.50;;;;;;5067844;28;20024;-67
2022/09/23 09:37:19;;;;;;;6.55;2.75;;;16.40;67.10;;;;;;5068425;28;20504;-67
2022/09/23 09:39:45;;;;;;;3.08;2.00;;;16.50;66.80;;;;;;5050566;28;20506;-67
2022/09/23 09:42:24;;;;;;;2.50;1.73;;;16.60;66.40;;;;;;5068348;28;20033;-67
2022/09/23 09:44:57;;;;;;;2.33;2.10;;;16.70;66.40;;;;;;5067928;28;20045;-67
2022/09/23 09:47:45;;;;;;;2.88;2.03;;;16.80;66.10;;;;;;5050390;28;20020;-67
2022/09/23 09:50:38;;;;;;;1.60;1.50;;;16.90;66.20;;;;;;5068471;28;20366;-67
2022/09/23 09:53:21;;;;;;;3.65;2.10;;;16.90;65.80;;;;;;5050118;28;20024;-69
2022/09/23 09:55:57;;;;;;;4.65;2.53;;;17.00;65.80;;;;;;5068947;28;20120;-69
2022/09/23 09:58:24;;;;;;;3.63;2.25;;;17.00;65.40;;;;;;5067926;28;20123;-69
2022/09/23 10:00:51;;;;;;;2.65;1.80;;;17.00;65.00;;;;;;5033494;28;20036;-69
2022/09/23 10:03:20;;;;;;;4.75;1.95;;;17.10;65.20;;;;;;5064421;28;20032;-69
2022/09/23 10:05:51;;;;;;;2.15;1.95;;;17.10;65.00;;;;;;5068950;28;20047;-69
2022/09/23 10:08:25;;;;;;;2.83;1.70;;;17.10;64.60;;;;;;5068167;28;20028;-69
2022/09/23 10:10:55;;;;;;;2.17;1.52;;;17.10;64.70;;;;;;5068347;28;20082;-69
2022/09/23 10:13:28;;;;;;;5.65;2.10;;;17.10;65.10;;;;;;5067560;28;20052;-69
2022/09/23 10:15:58;;;;;;;1.73;1.63;;;17.20;64.80;;;;;;5063861;28;20337;-68
2022/09/23 10:18:45;;;;;;;2.90;1.80;;;17.30;64.50;;;;;;5061196;28;20372;-68
2022/09/23 10:21:13;;;;;;;1.67;1.27;;;17.40;64.20;;;;;;5059252;28;20036;-68
2022/09/23 10:23:45;;;;;;;1.77;1.58;;;17.60;64.30;;;;;;5060160;28;20029;-67
2022/09/23 10:26:12;;;;;;;2.72;1.58;;;17.70;64.10;;;;;;5060888;28;20028;-66
2022/09/23 10:28:39;;;;;;;1.60;1.50;;;17.80;64.10;;;;;;5046397;28;20032;-69
2022/09/23 10:31:23;;;;;;;4.13;2.03;;;17.90;63.80;;;;;;5063021;28;20060;-69
2022/09/23 10:34:10;;;;;;;7.05;1.73;;;18.10;63.60;;;;;;5060347;28;20480;-68
2022/09/23 10:36:36;;;;;;;2.13;1.92;;;18.20;63.00;;;;;;5049483;28;20044;-67
2022/09/23 10:48:14;;;;;;;4.35;2.05;;;18.60;62.20;;;;;;5067618;28;20162;-67
2022/09/23 10:50:52;;;;;;;3.55;2.75;;;18.70;61.50;;;;;;5065386;28;20199;-67
2022/09/23 10:53:36;;;;;;;4.97;3.20;;;18.80;61.80;;;;;;5065408;28;20029;-67
2022/09/23 10:56:15;;;;;;;3.53;2.20;;;18.90;61.20;;;;;;5065972;28;20063;-67
2022/09/23 10:58:47;;;;;;;2.67;1.70;;;19.10;61.10;;;;;;5063689;28;20173;-67
2022/09/23 11:01:35;;;;;;;4.05;1.98;;;19.10;60.80;;;;;;5057928;28;20468;-67
2022/09/23 11:04:17;;;;;;;1.67;1.48;;;19.20;60.90;;;;;;5039370;28;20036;-69
2022/09/23 11:07:10;;;;;;;2.08;1.60;;;19.20;60.60;;;;;;5065647;28;20032;-69
2022/09/23 11:09:39;;;;;;;;;;;19.10;60.80;;;;;;5065674;28;20067;-67
2022/09/23 11:12:35;;;;;;;1.52;1.25;;;19.00;61.20;;;;;;5064289;28;20006;-67
2022/09/23 11:15:22;;;;;;;3.58;1.90;;;18.90;61.20;;;;;;5069612;28;20025;-67
2022/09/23 11:18:28;;;;;;;1.75;1.63;;;18.80;61.60;;;;;;5071589;28;20383;-67
2022/09/23 11:21:06;;;;;;;2.65;1.90;;;18.70;61.80;;;;;;5025736;28;20043;-68
2022/09/23 11:23:37;;;;;;;1.95;1.58;;;18.60;61.90;;;;;;5051261;28;20086;-69
2022/09/23 11:26:30;;;;;;;3.13;1.87;;;18.60;62.10;;;;;;5071145;28;20392;-69
2022/09/23 11:29:07;;;;;;;5.53;2.00;;;18.50;62.20;;;;;;5067290;28;20259;-68
2022/09/23 11:31:36;;;;;;;1.98;1.60;;;18.50;62.20;;;;;;5069056;28;20039;-70
2022/09/23 11:34:11;;;;;;;1.88;1.52;;;18.50;62.40;;;;;;5069222;28;20020;-69
2022/09/23 11:36:39;;;;;;;4.30;2.35;;;18.40;62.60;;;;;;5061405;28;20483;-68
2022/09/23 11:39:19;;;;;;;2.38;1.73;;;18.40;62.70;;;;;;5068172;28;20016;-66
2022/09/23 11:41:48;;;;;;;2.17;1.88;;;18.40;62.80;;;;;;5070068;28;20047;-65
2022/09/23 11:44:22;;;;;;;1.73;1.63;;;18.40;62.70;;;;;;5069457;28;20041;-66
2022/09/23 11:47:29;;;;;;;2.42;1.60;;;18.40;62.80;;;;;;5053024;28;20024;-68
2022/09/23 11:50:09;;;;;;;3.47;2.22;;;18.50;62.20;;;;;;5007957;28;20021;-66
2022/09/23 11:52:42;;;;;;;2.25;2.00;;;18.40;61.80;;;;;;5017535;28;20116;-68
2022/09/23 11:55:16;;;;;;;1.83;1.73;;;18.40;62.10;;;;;;5043712;28;20068;-68
2022/09/23 11:57:50;;;;;;;1.83;1.52;;;18.40;62.30;;;;;;5060550;28;20064;-68
2022/09/23 12:00:22;;;;;;;1.92;1.42;;;18.40;62.50;;;;;;5068841;28;20032;-68
2022/09/23 12:03:02;;;;;;;1.20;1.10;;;18.40;62.50;;;;;;5070774;28;20074;-68
2022/09/23 12:05:38;;;;;;;1.65;1.42;;;18.50;62.60;;;;;;5061537;28;20032;-68
2022/09/23 12:08:13;;;;;;;2.28;1.52;;;18.50;62.50;;;;;;5070326;28;20028;-68
2022/09/23 12:10:44;;;;;;;1.50;1.30;;;18.60;62.60;;;;;;5068131;28;20047;-68
2022/09/23 12:13:20;;;;;;;6.57;1.90;;;18.60;62.60;;;;;;5069494;28;20705;-69
2022/09/23 12:16:08;;;;;;;1.50;1.35;;;18.70;62.60;;;;;;5066444;28;20024;-68
2022/09/23 12:18:51;;;;;;;1.40;1.17;;;18.70;62.40;;;;;;5063360;28;20089;-68
2022/09/23 12:21:30;;;;;;;1.42;1.33;;;18.80;62.40;;;;;;5066182;28;20474;-66
2022/09/23 12:24:19;;;;;;;1.73;1.45;;;18.80;62.10;;;;;;5060593;28;20020;-69
2022/09/23 12:26:50;;;;;;;1.40;1.30;;;18.90;61.90;;;;;;5045532;28;20025;-68
2022/09/23 12:29:16;;;;;;;2.35;1.83;;;19.00;62.50;;;;;;5061050;28;20530;-69
2022/09/23 12:31:43;;;;;;;1.33;1.23;;;19.10;61.70;;;;;;5067229;28;20187;-68
2022/09/23 12:34:29;;;;;;;3.05;1.70;;;19.20;61.60;;;;;;5033159;28;20050;-69
2022/09/23 12:37:04;;;;;;;2.05;1.25;;;19.30;61.10;;;;;;5065553;28;20085;-69
2022/09/23 12:39:33;;;;;;;3.60;1.83;;;19.30;61.20;;;;;;5063974;28;20602;-68
2022/09/23 12:42:14;;;;;;;1.65;1.40;;;19.40;60.20;;;;;;5050568;28;20028;-67
2022/09/23 12:44:43;;;;;;;3.92;2.58;;;19.40;59.90;;;;;;5051310;28;20367;-69
2022/09/23 12:47:35;;;;;;;2.05;1.42;;;19.50;59.60;;;;;;5052721;28;20020;-68
2022/09/23 12:50:00;;;;;;;2.00;1.75;;;19.60;59.50;;;;;;5053683;28;20029;-69
2022/09/23 12:52:31;;;;;;;1.63;1.52;;;19.70;59.50;;;;;;5062853;28;20028;-67
2022/09/23 12:55:23;;;;;;;2.80;1.95;;;19.80;59.30;;;;;;5067158;28;20025;-66
2022/09/23 12:57:49;;;;;;;3.13;1.75;;;19.80;59.40;;;;;;5068050;28;20025;-68
2022/09/23 13:00:24;;;;;;;2.00;1.80;;;19.90;59.30;;;;;;5065634;28;20036;-68
2022/09/23 13:08:42;;;;;;;5.35;2.72;;;19.80;59.30;;;;;;5067739;28;20098;-69
2022/09/23 13:11:21;;;;;;;2.83;1.85;;;19.80;58.40;;;;;;5068195;28;20024;-69
2022/09/23 13:13:48;;;;;;;2.85;2.00;;;19.80;58.50;;;;;;5066275;28;20107;-69
2022/09/23 13:16:33;;;;;;;2.53;2.05;;;19.80;58.50;;;;;;5067973;28;20048;-69
2022/09/23 13:19:01;;;;;;;6.28;1.75;;;19.80;58.50;;;;;;5051728;28;20068;-69
2022/09/23 13:21:42;;;;;;;3.25;1.42;;;19.80;58.10;;;;;;5049746;28;20040;-69
2022/09/23 13:24:18;;;;;;;2.28;1.30;;;19.70;58.30;;;;;;5047153;28;20025;-69
2022/09/23 13:26:52;;;;;;;1.95;1.42;;;19.70;58.30;;;;;;5049611;28;20040;-69
2022/09/23 13:29:24;;;;;;;1.67;1.58;;;19.70;58.20;;;;;;5032935;28;20017;-66